Indian Harbour Beach, Florida
Current Conditions -  °F | °C
As of 3:58 AM on Friday 31 Oct 2014 (Local Time) from KCOF Reporting Station
Few Clouds Few Clouds  
Wind Chill: 70°   Ceiling: Unl
Heat Index: 70°   Visibility: 10mi
Dew Point: 68°   Wind: 0mph
Humidity: 93%   Direction: NA
Pressure: 29.83"   Gusts: NA
Location:  28.1733°N, 80.598°W
Report Text: KCOF 310758Z AUTO 00000KT 10SM FEW080 21/20 A2983 RMK AO2 LTG DSNT E DZB0705E0714 SLP106 P0000 T02110199
Loading
Personal Weather Stations






























Interactive Weather Map
Tropical Storm Tracking
New forecast layout! Learn more

10-Day Weather Forecast

Advertisements
Track Severe Weather on mobile